createdAt,value
2023-06-28T00:00:34.710Z,9.02
2023-06-28T00:03:06.057Z,9.85
2023-06-28T00:05:36.239Z,10.15
2023-06-28T00:10:30.268Z,7.18
2023-06-28T00:12:58.857Z,8.18
2023-06-28T00:15:26.102Z,7.30
2023-06-28T00:17:53.486Z,7.72
2023-06-28T00:20:20.838Z,8.07
2023-06-28T00:22:48.118Z,8.40
2023-06-28T00:25:18.043Z,9.77
2023-06-28T00:27:45.524Z,9.02
2023-06-28T00:30:13.100Z,7.45
2023-06-28T00:32:40.975Z,9.68
2023-06-28T00:35:08.718Z,7.35
2023-06-28T00:37:36.351Z,8.77
2023-06-28T00:40:06.926Z,8.23
2023-06-28T00:42:33.928Z,9.48
2023-06-28T00:45:01.574Z,7.20
2023-06-28T00:47:30.408Z,11.13
2023-06-28T00:50:01.221Z,8.85
2023-06-28T00:52:28.669Z,8.35
2023-06-28T00:54:57.287Z,6.97
2023-06-28T00:57:24.943Z,8.82
2023-06-28T00:59:53.677Z,7.97
2023-06-28T01:02:23.824Z,8.95
2023-06-28T01:04:51.434Z,9.55
2023-06-28T01:07:18.971Z,9.45
2023-06-28T01:09:46.471Z,7.15
2023-06-28T01:12:14.368Z,8.02
2023-06-28T01:14:41.658Z,8.55
2023-06-28T01:17:09.134Z,9.23
2023-06-28T01:19:38.077Z,8.30
2023-06-28T01:22:07.720Z,8.20
2023-06-28T01:24:37.435Z,6.72
2023-06-28T01:27:08.607Z,8.27
2023-06-28T01:29:38.148Z,8.02
2023-06-28T01:32:07.028Z,8.45
2023-06-28T01:34:38.145Z,9.02
2023-06-28T01:37:06.252Z,8.15
2023-06-28T01:39:35.785Z,9.82
2023-06-28T01:42:04.422Z,7.55
2023-06-28T01:44:37.066Z,9.52
2023-06-28T01:47:05.208Z,8.57
2023-06-28T01:50:44.404Z,8.77
2023-06-28T01:53:12.052Z,7.60
2023-06-28T01:55:51.654Z,5.65
2023-06-28T01:58:25.442Z,8.25
2023-06-28T02:00:52.793Z,7.43
2023-06-28T02:03:44.716Z,10.93
2023-06-28T02:06:12.015Z,8.98
2023-06-28T02:08:39.060Z,12.07
2023-06-28T02:11:05.977Z,7.70
2023-06-28T02:13:33.301Z,6.47
2023-06-28T02:16:02.508Z,5.30
2023-06-28T02:18:35.750Z,6.40
2023-06-28T02:21:03.127Z,5.82
2023-06-28T02:23:30.480Z,5.57
2023-06-28T02:25:59.305Z,7.18
2023-06-28T02:28:30.127Z,6.80
2023-06-28T02:30:57.426Z,7.97
2023-06-28T02:33:27.572Z,5.90
2023-06-28T02:35:54.773Z,6.22
2023-06-28T02:38:22.008Z,5.53
2023-06-28T02:40:48.818Z,8.35
2023-06-28T02:43:21.843Z,7.88
2023-06-28T02:45:49.480Z,6.03
2023-06-28T02:48:16.826Z,7.45
2023-06-28T02:50:44.280Z,7.00
2023-06-28T02:53:15.573Z,8.10
2023-06-28T02:55:42.553Z,6.85
2023-06-28T02:58:09.967Z,9.48
2023-06-28T03:00:39.474Z,8.02
2023-06-28T03:03:15.641Z,6.00
2023-06-28T03:05:53.041Z,8.32
2023-06-28T03:15:35.915Z,7.25
2023-06-28T03:21:27.054Z,6.72
2023-06-28T03:23:54.495Z,8.57
2023-06-28T03:26:21.770Z,9.32
2023-06-28T03:28:49.825Z,7.47
2023-06-28T03:31:19.811Z,8.07
2023-06-28T03:33:47.808Z,7.78
2023-06-28T03:36:16.495Z,8.93
2023-06-28T03:38:59.780Z,8.75
2023-06-28T03:41:28.808Z,9.55
2023-06-28T03:43:58.312Z,8.85
2023-06-28T03:46:25.784Z,9.15
2023-06-28T03:48:55.450Z,7.75
2023-06-28T03:51:27.149Z,8.85
2023-06-28T03:53:54.530Z,8.75
2023-06-28T03:56:22.031Z,9.52
2023-06-28T03:58:55.641Z,10.80
2023-06-28T04:01:24.708Z,11.45
2023-06-28T04:07:58.800Z,8.52
2023-06-28T04:10:26.548Z,12.00
2023-06-28T04:12:56.856Z,11.55
2023-06-28T04:15:24.071Z,11.00
2023-06-28T04:17:51.390Z,12.25
2023-06-28T04:20:20.609Z,11.02
2023-06-28T04:22:48.084Z,11.68
2023-06-28T04:25:15.542Z,12.95
2023-06-28T04:27:42.891Z,15.30
2023-06-28T04:30:10.414Z,14.00
2023-06-28T04:32:40.754Z,13.93
2023-06-28T04:35:08.178Z,12.70
2023-06-28T04:37:39.681Z,14.05
2023-06-28T04:40:07.190Z,13.40
2023-06-28T04:42:35.880Z,11.35
2023-06-28T04:45:03.423Z,12.07
2023-06-28T04:47:30.761Z,14.90
2023-06-28T04:49:58.093Z,12.80
2023-06-28T04:52:26.242Z,15.98
2023-06-28T04:54:53.634Z,15.70
2023-06-28T04:57:23.833Z,15.57
2023-06-28T04:59:51.393Z,16.17
2023-06-28T05:02:18.728Z,16.33
2023-06-28T05:04:46.411Z,16.98
2023-06-28T05:07:14.019Z,15.75
2023-06-28T05:09:41.230Z,14.48
2023-06-28T05:12:08.523Z,14.18
2023-06-28T05:14:35.836Z,18.23
2023-06-28T05:17:06.333Z,17.35
2023-06-28T05:19:33.651Z,17.00
2023-06-28T05:22:00.860Z,13.50
2023-06-28T05:24:27.861Z,15.40
2023-06-28T05:26:55.362Z,17.73
2023-06-28T05:29:22.705Z,16.98
2023-06-28T05:31:50.309Z,13.48
2023-06-28T05:34:17.106Z,17.85
2023-06-28T05:36:50.349Z,17.60
2023-06-28T05:39:17.771Z,15.60
2023-06-28T05:41:47.702Z,13.95
2023-06-28T05:44:24.333Z,16.65
2023-06-28T05:47:06.670Z,17.23
2023-06-28T05:50:01.553Z,16.98
2023-06-28T05:55:44.328Z,18.23
2023-06-28T05:58:11.553Z,19.85
2023-06-28T06:00:39.318Z,18.40
2023-06-28T06:03:31.891Z,18.52
2023-06-28T06:09:21.376Z,16.23
2023-06-28T06:12:42.440Z,19.08
2023-06-28T06:20:33.600Z,19.85
2023-06-28T06:23:25.826Z,20.63
2023-06-28T06:25:55.836Z,21.60
2023-06-28T06:28:23.500Z,18.63
2023-06-28T06:30:51.914Z,22.40
2023-06-28T06:33:19.487Z,19.38
2023-06-28T06:35:46.910Z,22.35
2023-06-28T06:38:14.177Z,18.73
2023-06-28T06:40:43.974Z,19.67
2023-06-28T06:43:10.927Z,17.58
2023-06-28T06:45:38.365Z,16.33
2023-06-28T06:48:05.892Z,18.30
2023-06-28T06:50:36.368Z,18.80
2023-06-28T06:53:03.891Z,17.17
2023-06-28T06:55:32.740Z,18.60
2023-06-28T06:58:02.575Z,17.60
2023-06-28T07:00:29.849Z,19.98
2023-06-28T07:02:58.610Z,18.38
2023-06-28T07:05:26.026Z,20.45
2023-06-28T07:07:56.190Z,18.13
2023-06-28T07:10:23.508Z,16.92
2023-06-28T07:12:56.009Z,22.70
2023-06-28T07:15:23.273Z,17.42
2023-06-28T07:17:54.325Z,17.98
2023-06-28T07:20:22.081Z,21.40
2023-06-28T07:22:49.524Z,19.25
2023-06-28T07:25:16.909Z,15.10
2023-06-28T07:27:44.146Z,23.80
2023-06-28T07:30:11.773Z,21.95
2023-06-28T07:32:39.272Z,17.92
2023-06-28T07:35:07.019Z,19.05
2023-06-28T07:37:34.485Z,19.33
2023-06-28T07:40:01.801Z,19.50
2023-06-28T07:42:29.525Z,22.23
2023-06-28T07:44:59.497Z,18.52
2023-06-28T07:47:26.809Z,18.80
2023-06-28T07:49:54.294Z,23.45
2023-06-28T07:52:21.609Z,23.05
2023-06-28T07:54:49.182Z,20.48
2023-06-28T07:57:16.821Z,21.45
2023-06-28T07:59:44.122Z,18.08
2023-06-28T08:02:13.334Z,15.35
2023-06-28T08:04:41.236Z,20.95
2023-06-28T08:07:08.590Z,22.38
2023-06-28T08:09:35.869Z,16.83
2023-06-28T08:12:04.722Z,18.30
2023-06-28T08:14:34.915Z,20.33
2023-06-28T08:20:53.150Z,22.73
2023-06-28T08:23:21.329Z,20.65
2023-06-28T08:30:02.148Z,18.65
2023-06-28T08:33:16.389Z,18.42
2023-06-28T08:35:27.007Z,19.15
2023-06-28T08:38:03.130Z,19.83
2023-06-28T08:40:33.751Z,19.35
2023-06-28T08:43:05.360Z,20.63
2023-06-28T08:45:39.608Z,19.75
2023-06-28T08:48:16.281Z,18.02
2023-06-28T08:51:02.455Z,21.02
2023-06-28T08:53:58.468Z,17.98
2023-06-28T08:56:25.935Z,18.48
2023-06-28T08:59:18.949Z,18.25
2023-06-28T09:01:52.327Z,19.67
2023-06-28T09:07:56.379Z,17.30
2023-06-28T09:10:23.903Z,24.40
2023-06-28T09:13:21.229Z,17.67
2023-06-28T09:15:48.783Z,19.55
2023-06-28T09:18:16.588Z,17.05
2023-06-28T09:21:09.913Z,19.80
2023-06-28T09:23:37.078Z,19.40
2023-06-28T09:26:04.682Z,18.60
2023-06-28T09:28:36.025Z,18.88
2023-06-28T09:31:07.624Z,16.60
2023-06-28T09:33:37.828Z,16.83
2023-06-28T09:36:14.388Z,19.77
2023-06-28T09:38:48.026Z,19.98
2023-06-28T09:41:15.834Z,19.45
2023-06-28T09:46:25.487Z,18.05
2023-06-28T09:48:53.008Z,17.55
2023-06-28T09:51:20.766Z,18.25
2023-06-28T09:54:14.754Z,18.63
2023-06-28T09:56:44.122Z,14.43
2023-06-28T09:59:19.889Z,14.98
2023-06-28T10:04:57.581Z,18.35
2023-06-28T10:05:18.225Z,15.50
2023-06-28T10:07:25.805Z,16.27
2023-06-28T10:09:53.845Z,19.35
2023-06-28T10:12:22.833Z,19.30
2023-06-28T10:15:00.314Z,19.50
2023-06-28T10:17:32.810Z,17.85
2023-06-28T10:20:02.014Z,17.63
2023-06-28T10:22:29.305Z,20.98
2023-06-28T10:24:58.127Z,17.83
2023-06-28T10:27:26.447Z,18.45
2023-06-28T10:32:50.687Z,18.52
2023-06-28T10:35:17.691Z,18.08
2023-06-28T10:37:45.097Z,16.60
2023-06-28T10:45:04.263Z,17.88
2023-06-28T10:48:04.647Z,18.00
2023-06-28T10:51:02.725Z,15.07
2023-06-28T10:54:17.124Z,18.25
2023-06-28T11:04:50.851Z,21.13
2023-06-28T11:10:18.285Z,19.55
2023-06-28T11:12:49.353Z,18.98
2023-06-28T11:15:29.186Z,23.15
2023-06-28T11:18:07.638Z,19.10
2023-06-28T11:21:06.238Z,21.33
2023-06-28T11:23:38.651Z,18.58
2023-06-28T11:28:45.646Z,19.98
2023-06-28T11:31:18.617Z,20.10
2023-06-28T11:33:49.010Z,22.33
2023-06-28T11:36:16.636Z,21.73
2023-06-28T11:38:53.661Z,27.40
2023-06-28T11:41:49.191Z,25.08
2023-06-28T11:44:25.513Z,22.90
2023-06-28T11:47:00.917Z,21.30
2023-06-28T11:49:28.231Z,20.70
2023-06-28T11:51:57.031Z,21.35
2023-06-28T11:54:25.929Z,23.52
2023-06-28T11:56:53.358Z,23.80
2023-06-28T11:59:22.787Z,25.00
2023-06-28T12:02:08.456Z,22.95
2023-06-28T12:05:05.680Z,23.33
2023-06-28T12:07:37.202Z,20.42
2023-06-28T12:10:34.395Z,23.75
2023-06-28T12:13:01.430Z,21.83
2023-06-28T12:15:28.655Z,23.73
2023-06-28T12:17:56.002Z,23.17
2023-06-28T12:20:23.996Z,24.70
2023-06-28T12:22:51.537Z,24.90
2023-06-28T12:25:32.979Z,22.33
2023-06-28T12:28:08.485Z,25.08
2023-06-28T12:30:35.839Z,25.02
2023-06-28T12:33:09.766Z,22.85
2023-06-28T12:35:37.062Z,22.00
2023-06-28T12:38:04.414Z,22.98
2023-06-28T12:40:36.721Z,23.77
2023-06-28T12:43:19.185Z,26.33
2023-06-28T12:45:54.797Z,28.13
2023-06-28T12:48:23.377Z,25.05
2023-06-28T12:50:53.257Z,24.50
2023-06-28T12:56:33.192Z,24.45
2023-06-28T12:59:00.756Z,22.00
2023-06-28T13:01:28.185Z,24.23
2023-06-28T13:03:56.364Z,23.55
2023-06-28T13:06:24.175Z,25.08
2023-06-28T13:08:53.340Z,21.55
2023-06-28T13:11:20.875Z,22.40
2023-06-28T13:13:48.313Z,22.20
2023-06-28T13:16:15.585Z,23.70
2023-06-28T13:18:43.248Z,22.98
2023-06-28T13:21:10.729Z,21.48
2023-06-28T13:23:38.106Z,26.30
2023-06-28T13:26:07.964Z,22.98
2023-06-28T13:28:37.265Z,21.75
2023-06-28T13:31:04.258Z,21.08
2023-06-28T13:33:31.699Z,23.17
2023-06-28T13:35:58.968Z,22.23
2023-06-28T13:38:26.350Z,21.85
2023-06-28T13:41:19.260Z,21.45
2023-06-28T13:46:28.017Z,25.50
2023-06-28T13:48:55.380Z,27.75
2023-06-28T13:51:23.519Z,23.13
2023-06-28T13:53:51.083Z,21.67
2023-06-28T13:56:18.662Z,24.08
2023-06-28T13:58:45.668Z,25.25
2023-06-28T14:01:15.965Z,22.67
2023-06-28T14:03:43.506Z,25.77
2023-06-28T14:06:13.934Z,26.45
2023-06-28T14:08:42.392Z,25.55
2023-06-28T14:11:17.067Z,23.92
2023-06-28T14:14:06.652Z,24.08
2023-06-28T14:16:32.781Z,24.02
2023-06-28T14:19:15.573Z,24.38
2023-06-28T14:21:42.673Z,25.33
2023-06-28T14:24:12.203Z,24.35
2023-06-28T14:26:39.549Z,27.25
2023-06-28T14:29:07.250Z,23.77
2023-06-28T14:31:59.902Z,26.08
2023-06-28T14:34:33.023Z,26.95
2023-06-28T14:37:25.819Z,26.63
2023-06-28T14:39:55.694Z,23.85
2023-06-28T14:42:23.063Z,24.83
2023-06-28T14:44:50.456Z,25.20
2023-06-28T14:47:18.024Z,26.13
2023-06-28T14:49:54.403Z,24.13
2023-06-28T14:52:21.722Z,22.48
2023-06-28T15:04:19.520Z,23.45
2023-06-28T15:06:52.338Z,23.80
2023-06-28T15:10:34.165Z,26.52
2023-06-28T15:17:30.071Z,22.48
2023-06-28T15:20:06.720Z,25.30
2023-06-28T15:22:34.030Z,21.83
2023-06-28T15:25:01.768Z,22.55
2023-06-28T15:27:53.028Z,23.35
2023-06-28T15:30:26.342Z,24.27
2023-06-28T15:32:54.151Z,26.58
2023-06-28T15:35:22.008Z,29.90
2023-06-28T15:37:49.455Z,30.20
2023-06-28T15:40:19.457Z,30.20
2023-06-28T15:43:08.538Z,28.27
2023-06-28T15:45:54.377Z,23.10
2023-06-28T15:48:21.909Z,22.40
2023-06-28T15:56:34.421Z,26.23
2023-06-28T15:59:02.379Z,24.52
2023-06-28T16:05:49.190Z,22.60
2023-06-28T16:08:16.555Z,25.15
2023-06-28T16:10:43.459Z,24.20
2023-06-28T16:13:14.790Z,26.35
2023-06-28T16:25:46.169Z,23.67
2023-06-28T16:32:36.486Z,21.92
2023-06-28T16:35:03.846Z,20.88
2023-06-28T16:37:36.970Z,22.48
2023-06-28T16:40:04.420Z,22.77
2023-06-28T16:42:31.797Z,23.23
2023-06-28T16:57:24.293Z,23.50
2023-06-28T17:01:19.472Z,24.85
2023-06-28T17:04:11.425Z,23.33
2023-06-28T17:07:04.184Z,26.83
2023-06-28T17:14:10.353Z,21.52
2023-06-28T17:17:04.776Z,23.20
2023-06-28T17:20:24.941Z,23.52
2023-06-28T17:23:46.321Z,24.92
2023-06-28T17:26:38.806Z,25.10
2023-06-28T17:29:12.347Z,22.92
2023-06-28T17:31:49.041Z,24.55
2023-06-28T17:34:17.867Z,25.23
2023-06-28T17:37:12.442Z,24.13
2023-06-28T17:42:06.876Z,22.77
2023-06-28T17:44:33.813Z,21.98
2023-06-28T17:50:37.401Z,27.05
2023-06-28T17:53:27.736Z,21.08
2023-06-28T17:56:19.644Z,24.55
2023-06-28T17:59:12.944Z,26.33
2023-06-28T18:02:05.848Z,27.58
2023-06-28T18:04:58.414Z,26.27
2023-06-28T18:10:22.647Z,25.27
2023-06-28T18:16:42.081Z,21.25
2023-06-28T18:19:11.600Z,22.90
2023-06-28T18:21:45.992Z,21.90
2023-06-28T18:24:15.981Z,24.05
2023-06-28T18:27:11.019Z,26.38
2023-06-28T18:29:40.385Z,23.80
2023-06-28T18:32:08.255Z,25.50
2023-06-28T18:34:35.708Z,21.63
2023-06-28T18:37:15.398Z,24.67
2023-06-28T18:44:11.433Z,24.50
2023-06-28T18:46:41.701Z,22.48
2023-06-28T18:49:30.397Z,22.25
2023-06-28T18:51:57.775Z,21.38
2023-06-28T18:54:25.245Z,24.67
2023-06-28T18:56:52.606Z,23.60
2023-06-28T18:59:19.943Z,21.63
2023-06-28T19:10:26.578Z,24.65
2023-06-28T19:13:27.944Z,21.73
2023-06-28T19:16:20.447Z,22.23
2023-06-28T19:18:47.994Z,21.00
2023-06-28T19:29:07.427Z,21.38
2023-06-28T19:31:38.225Z,21.40
2023-06-28T19:38:23.043Z,19.75
2023-06-28T19:40:50.461Z,21.10
2023-06-28T19:43:20.168Z,19.65
2023-06-28T19:46:12.572Z,20.75
2023-06-28T19:55:10.280Z,18.88
2023-06-28T19:57:37.801Z,19.40
2023-06-28T20:00:31.602Z,19.52
2023-06-28T20:03:24.202Z,17.20
2023-06-28T20:05:54.340Z,19.00
2023-06-28T20:08:21.719Z,19.63
2023-06-28T20:10:51.849Z,18.33
2023-06-28T20:13:19.241Z,16.90
2023-06-28T20:15:48.146Z,17.17
2023-06-28T20:18:15.622Z,16.70
2023-06-28T20:20:45.649Z,16.58
2023-06-28T20:23:13.301Z,17.15
2023-06-28T20:25:41.771Z,17.55
2023-06-28T20:28:09.380Z,20.63
2023-06-28T20:30:36.905Z,15.05
2023-06-28T20:33:03.982Z,17.90
2023-06-28T20:35:32.086Z,16.33
2023-06-28T20:37:59.299Z,16.65
2023-06-28T20:40:26.932Z,18.63
2023-06-28T20:42:54.251Z,17.90
2023-06-28T20:45:22.555Z,16.42
2023-06-28T20:47:51.086Z,18.13
2023-06-28T20:50:21.121Z,20.13
2023-06-28T20:55:17.878Z,18.02
2023-06-28T20:57:48.141Z,16.83
2023-06-28T21:00:16.181Z,19.90
2023-06-28T21:02:43.355Z,20.27
2023-06-28T21:05:12.848Z,16.90
2023-06-28T21:07:42.541Z,18.65
2023-06-28T21:10:10.278Z,17.42
2023-06-28T21:12:37.985Z,18.80
2023-06-28T21:17:52.226Z,17.13
2023-06-28T21:20:19.685Z,16.50
2023-06-28T21:24:11.130Z,20.48
2023-06-28T21:26:29.237Z,19.48
2023-06-28T21:42:55.664Z,15.88
2023-06-28T21:45:23.434Z,19.92
2023-06-28T21:52:17.474Z,17.30
2023-06-28T21:54:45.268Z,16.23
2023-06-28T21:57:18.583Z,17.25
2023-06-28T22:00:01.798Z,16.35
2023-06-28T22:02:29.577Z,17.80
2023-06-28T22:04:57.132Z,16.98
2023-06-28T22:07:26.806Z,16.38
2023-06-28T22:09:55.214Z,17.17
2023-06-28T22:12:27.113Z,17.45
2023-06-28T22:14:59.854Z,15.38
2023-06-28T22:17:35.191Z,16.60
2023-06-28T22:20:13.020Z,16.05
2023-06-28T22:22:40.478Z,17.70
2023-06-28T22:25:08.068Z,17.35
2023-06-28T22:27:35.489Z,17.10
2023-06-28T22:30:06.416Z,17.10
2023-06-28T22:32:34.263Z,17.70
2023-06-28T22:35:01.625Z,17.63
2023-06-28T22:37:28.988Z,17.52
2023-06-28T22:39:56.445Z,16.73
2023-06-28T22:42:36.599Z,21.17
2023-06-28T22:45:05.707Z,16.75
2023-06-28T22:50:43.794Z,17.23
2023-06-28T22:53:11.916Z,17.25
2023-06-28T22:55:39.506Z,17.52
2023-06-28T22:58:07.215Z,18.83
2023-06-28T23:00:34.698Z,19.02
2023-06-28T23:03:02.314Z,21.23
2023-06-28T23:05:29.857Z,17.27
2023-06-28T23:07:57.749Z,17.15
2023-06-28T23:10:27.524Z,16.98
2023-06-28T23:15:23.883Z,17.48
2023-06-28T23:17:51.235Z,13.52
2023-06-28T23:20:18.675Z,18.85
2023-06-28T23:22:46.357Z,16.33
2023-06-28T23:25:14.403Z,17.38
2023-06-28T23:27:49.584Z,16.98
2023-06-28T23:30:18.669Z,20.20
2023-06-28T23:32:50.402Z,16.45
2023-06-28T23:35:21.548Z,20.23
2023-06-28T23:37:49.484Z,17.10
2023-06-28T23:40:16.910Z,19.58
2023-06-28T23:42:45.150Z,21.42
2023-06-28T23:45:12.146Z,17.05
2023-06-28T23:47:40.661Z,18.35
2023-06-28T23:50:09.914Z,18.15
2023-06-28T23:52:37.824Z,20.90
2023-06-28T23:55:05.403Z,18.17
2023-06-28T23:57:34.943Z,18.15
